createdAt,value
2018-04-26T00:01:11.862Z,20.40
2018-04-26T00:03:39.322Z,20.48
2018-04-26T00:06:07.121Z,20.41
2018-04-26T00:08:34.614Z,20.34
2018-04-26T00:11:02.069Z,20.39
2018-04-26T00:13:29.539Z,20.42
2018-04-26T00:15:57.044Z,20.42
2018-04-26T00:18:24.524Z,20.31
2018-04-26T00:20:51.990Z,20.33
2018-04-26T00:23:19.447Z,20.30
2018-04-26T00:25:46.929Z,20.23
2018-04-26T00:28:14.411Z,20.21
2018-04-26T00:30:41.867Z,20.16
2018-04-26T00:33:09.333Z,20.17
2018-04-26T00:35:36.787Z,20.10
2018-04-26T00:38:04.273Z,20.07
2018-04-26T00:40:32.888Z,19.98
2018-04-26T00:43:00.472Z,20.09
2018-04-26T00:45:27.946Z,20.09
2018-04-26T00:47:55.447Z,19.95
2018-04-26T00:50:22.910Z,19.99
2018-04-26T00:52:50.448Z,19.94
2018-04-26T00:55:17.920Z,19.94
2018-04-26T00:57:45.388Z,19.90
2018-04-26T01:00:12.868Z,19.77
2018-04-26T01:02:40.340Z,19.70
2018-04-26T01:05:07.827Z,19.76
2018-04-26T01:07:35.324Z,19.75
2018-04-26T01:10:02.778Z,19.69
2018-04-26T01:12:30.267Z,19.63
2018-04-26T01:14:57.777Z,19.58
2018-04-26T01:17:25.269Z,19.62
2018-04-26T01:19:52.718Z,19.46
2018-04-26T01:22:20.196Z,19.44
2018-04-26T01:24:47.673Z,19.33
2018-04-26T01:27:15.146Z,19.11
2018-04-26T01:29:42.611Z,19.00
2018-04-26T01:32:10.102Z,18.92
2018-04-26T01:34:37.590Z,18.91
2018-04-26T01:40:13.936Z,18.67
2018-04-26T01:42:41.399Z,18.58
2018-04-26T01:45:08.859Z,18.44
2018-04-26T01:47:36.350Z,18.54
2018-04-26T01:50:03.893Z,18.47
2018-04-26T01:52:31.370Z,18.38
2018-04-26T01:54:58.834Z,18.34
2018-04-26T01:57:26.359Z,18.37
2018-04-26T01:59:53.826Z,18.37
2018-04-26T02:02:21.318Z,18.32
2018-04-26T02:04:48.810Z,18.32
2018-04-26T02:07:16.654Z,18.25
2018-04-26T02:09:44.115Z,18.23
2018-04-26T02:12:11.623Z,18.17
2018-04-26T02:14:39.094Z,18.16
2018-04-26T02:17:06.560Z,18.20
2018-04-26T02:19:34.068Z,18.22
2018-04-26T02:22:01.524Z,18.17
2018-04-26T02:24:29.014Z,18.10
2018-04-26T02:26:56.558Z,18.10
2018-04-26T02:29:24.027Z,17.95
2018-04-26T02:31:51.491Z,17.94
2018-04-26T02:34:18.966Z,17.80
2018-04-26T02:36:46.626Z,17.64
2018-04-26T02:39:14.091Z,17.53
2018-04-26T02:41:41.627Z,17.55
2018-04-26T02:44:09.082Z,17.46
2018-04-26T02:46:36.538Z,17.30
2018-04-26T02:49:04.047Z,17.16
2018-04-26T02:51:31.504Z,17.06
2018-04-26T02:53:58.976Z,16.97
2018-04-26T02:56:26.443Z,16.86
2018-04-26T02:58:54.038Z,16.87
2018-04-26T03:01:21.499Z,16.88
2018-04-26T03:03:48.979Z,16.78
2018-04-26T03:06:16.444Z,16.79
2018-04-26T03:08:43.917Z,16.86
2018-04-26T03:11:11.406Z,16.80
2018-04-26T03:13:38.892Z,16.74
2018-04-26T03:16:06.350Z,16.74
2018-04-26T03:18:33.822Z,16.60
2018-04-26T03:21:01.368Z,16.49
2018-04-26T03:23:28.852Z,16.39
2018-04-26T03:25:56.304Z,16.39
2018-04-26T03:28:23.779Z,16.28
2018-04-26T03:30:51.252Z,16.27
2018-04-26T03:33:18.720Z,16.33
2018-04-26T03:35:46.178Z,16.35
2018-04-26T03:38:13.648Z,16.33
2018-04-26T03:40:41.166Z,16.26
2018-04-26T03:43:08.633Z,16.21
2018-04-26T03:45:36.165Z,16.11
2018-04-26T03:48:03.650Z,16.15
2018-04-26T03:50:31.111Z,16.18
2018-04-26T03:52:58.586Z,16.30
2018-04-26T03:55:26.082Z,16.30
2018-04-26T03:57:53.555Z,16.37
2018-04-26T04:00:32.691Z,16.42
2018-04-26T04:03:12.655Z,16.42
2018-04-26T04:05:51.879Z,16.32
2018-04-26T04:08:19.339Z,16.37
2018-04-26T04:10:46.813Z,16.42
2018-04-26T04:13:14.307Z,16.39
2018-04-26T04:15:41.776Z,16.35
2018-04-26T04:18:09.263Z,16.45
2018-04-26T04:20:37.876Z,16.37
2018-04-26T04:23:05.365Z,16.23
2018-04-26T04:25:32.910Z,16.25
2018-04-26T04:28:00.454Z,16.31
2018-04-26T04:30:27.949Z,16.33
2018-04-26T04:32:55.425Z,16.30
2018-04-26T04:35:22.892Z,16.26
2018-04-26T04:37:50.379Z,16.14
2018-04-26T04:40:19.203Z,16.09
2018-04-26T04:42:46.671Z,16.10
2018-04-26T04:45:14.214Z,16.10
2018-04-26T04:47:41.679Z,16.15
2018-04-26T04:50:09.143Z,16.12
2018-04-26T04:52:36.955Z,16.24
2018-04-26T04:55:04.559Z,16.15
2018-04-26T04:57:32.031Z,16.09
2018-04-26T04:59:59.486Z,15.98
2018-04-26T05:02:26.968Z,15.89
2018-04-26T05:04:54.470Z,15.94
2018-04-26T05:07:21.972Z,16.00
2018-04-26T05:09:49.418Z,15.96
2018-04-26T05:12:16.888Z,16.01
2018-04-26T05:14:44.348Z,15.99
2018-04-26T05:17:11.828Z,16.06
2018-04-26T05:19:39.323Z,16.05
2018-04-26T05:22:06.786Z,16.04
2018-04-26T05:24:34.254Z,16.14
2018-04-26T05:27:01.738Z,16.17
2018-04-26T05:29:29.396Z,16.25
2018-04-26T05:31:56.860Z,16.19
2018-04-26T05:34:24.310Z,16.16
2018-04-26T05:36:51.803Z,16.07
2018-04-26T05:39:19.282Z,16.03
2018-04-26T05:41:46.783Z,16.02
2018-04-26T05:44:14.288Z,16.02
2018-04-26T05:46:41.751Z,16.00
2018-04-26T05:49:09.220Z,16.06
2018-04-26T05:51:36.711Z,15.95
2018-04-26T05:54:04.206Z,16.03
2018-04-26T05:56:31.665Z,16.02
2018-04-26T05:58:59.158Z,16.25
2018-04-26T06:01:26.618Z,16.23
2018-04-26T06:03:54.193Z,16.23
2018-04-26T06:06:21.600Z,16.06
2018-04-26T06:08:49.073Z,16.08
2018-04-26T06:11:16.537Z,15.91
2018-04-26T06:13:44.077Z,15.84
2018-04-26T06:16:11.529Z,15.95
2018-04-26T06:18:38.979Z,15.90
2018-04-26T06:21:07.073Z,15.87
2018-04-26T06:23:34.586Z,15.83
2018-04-26T06:26:02.093Z,15.76
2018-04-26T06:28:29.569Z,15.78
2018-04-26T06:30:57.030Z,15.64
2018-04-26T06:33:25.824Z,15.67
2018-04-26T06:35:53.340Z,15.67
2018-04-26T06:38:22.080Z,15.54
2018-04-26T06:40:49.551Z,15.49
2018-04-26T06:43:17.047Z,15.48
2018-04-26T06:45:44.505Z,15.34
2018-04-26T06:48:12.993Z,15.21
2018-04-26T06:50:40.467Z,15.15
2018-04-26T06:53:09.114Z,15.08
2018-04-26T06:55:36.557Z,15.03
2018-04-26T06:58:04.060Z,15.12
2018-04-26T07:00:31.566Z,15.08
2018-04-26T07:02:59.030Z,15.04
2018-04-26T07:05:26.574Z,15.11
2018-04-26T07:07:54.067Z,15.02
2018-04-26T07:10:21.585Z,14.90
2018-04-26T07:12:49.053Z,14.87
2018-04-26T07:15:16.539Z,14.86
2018-04-26T07:17:44.028Z,14.93
2018-04-26T07:20:11.522Z,14.98
2018-04-26T07:22:39.002Z,14.89
2018-04-26T07:25:06.478Z,14.81
2018-04-26T07:27:34.127Z,14.86
2018-04-26T07:30:01.630Z,14.76
2018-04-26T07:32:29.124Z,14.68
2018-04-26T07:34:56.710Z,14.72
2018-04-26T07:37:24.132Z,14.73
2018-04-26T07:39:51.655Z,14.67
2018-04-26T07:42:19.118Z,14.64
2018-04-26T07:44:46.613Z,14.67
2018-04-26T07:47:14.162Z,14.75
2018-04-26T07:49:41.663Z,14.67
2018-04-26T07:52:09.138Z,14.60
2018-04-26T07:54:36.946Z,14.65
2018-04-26T07:57:04.449Z,14.73
2018-04-26T07:59:31.926Z,14.70
2018-04-26T08:01:59.397Z,14.64
2018-04-26T08:04:26.881Z,14.75
2018-04-26T08:06:54.373Z,14.68
2018-04-26T08:09:21.851Z,14.70
2018-04-26T08:11:49.327Z,14.73
2018-04-26T08:14:16.855Z,14.82
2018-04-26T08:16:44.355Z,14.87
2018-04-26T08:19:11.830Z,14.90
2018-04-26T08:21:39.311Z,15.04
2018-04-26T08:24:07.566Z,14.95
2018-04-26T08:26:35.042Z,14.85
2018-04-26T08:29:02.527Z,14.86
2018-04-26T08:31:29.993Z,14.86
2018-04-26T08:33:57.486Z,15.06
2018-04-26T08:36:24.978Z,15.12
2018-04-26T08:38:52.464Z,15.09
2018-04-26T08:41:19.970Z,15.03
2018-04-26T08:43:47.431Z,14.98
2018-04-26T08:46:14.907Z,14.86
2018-04-26T08:48:42.390Z,14.84
2018-04-26T08:51:09.893Z,14.92
2018-04-26T08:53:37.383Z,15.00
2018-04-26T08:56:04.848Z,15.15
2018-04-26T08:58:32.330Z,15.20
2018-04-26T09:00:59.825Z,15.21
2018-04-26T09:03:27.305Z,15.22
2018-04-26T09:05:54.801Z,15.13
2018-04-26T09:08:22.282Z,15.15
2018-04-26T09:10:49.740Z,15.19
2018-04-26T09:13:17.211Z,15.10
2018-04-26T09:15:44.776Z,15.12
2018-04-26T09:18:12.225Z,15.11
2018-04-26T09:20:39.721Z,15.10
2018-04-26T09:23:07.215Z,15.04
2018-04-26T09:25:34.694Z,14.96
2018-04-26T09:28:02.182Z,14.79
2018-04-26T09:30:29.667Z,14.90
2018-04-26T09:32:57.150Z,14.84
2018-04-26T09:35:24.622Z,14.89
2018-04-26T09:37:52.165Z,14.91
2018-04-26T09:40:19.638Z,14.85
2018-04-26T09:42:47.115Z,14.99
2018-04-26T09:45:14.597Z,14.92
2018-04-26T09:47:42.070Z,14.88
2018-04-26T09:50:09.571Z,14.97
2018-04-26T09:52:37.072Z,14.87
2018-04-26T09:55:04.553Z,14.68
2018-04-26T09:57:32.039Z,14.74
2018-04-26T09:59:59.517Z,14.63
2018-04-26T10:02:27.001Z,14.72
2018-04-26T10:04:55.315Z,14.57
2018-04-26T10:07:22.806Z,14.68
2018-04-26T10:09:50.296Z,14.72
2018-04-26T10:12:17.805Z,14.74
2018-04-26T10:14:45.304Z,14.78
2018-04-26T10:17:12.777Z,14.78
2018-04-26T10:19:40.246Z,14.84
2018-04-26T10:22:07.714Z,14.94
2018-04-26T10:24:36.063Z,14.94
2018-04-26T10:27:03.569Z,14.82
2018-04-26T10:29:31.076Z,14.85
2018-04-26T10:31:58.552Z,14.98
2018-04-26T10:34:26.040Z,14.85
2018-04-26T10:36:53.519Z,14.87
2018-04-26T10:39:21.032Z,15.00
2018-04-26T10:41:48.514Z,15.01
2018-04-26T10:44:16.056Z,14.93
2018-04-26T10:46:43.540Z,14.87
2018-04-26T10:49:11.020Z,14.89
2018-04-26T10:51:38.475Z,14.78
2018-04-26T10:54:07.284Z,14.58
2018-04-26T10:56:34.744Z,14.70
2018-04-26T10:59:02.223Z,14.54
2018-04-26T11:01:29.681Z,14.47
2018-04-26T11:03:57.190Z,14.37
2018-04-26T11:06:24.695Z,14.42
2018-04-26T11:08:52.165Z,14.43
2018-04-26T11:11:19.674Z,14.41
2018-04-26T11:13:47.146Z,14.34
2018-04-26T11:16:14.638Z,14.27
2018-04-26T11:18:42.150Z,14.27
2018-04-26T11:21:09.635Z,14.23
2018-04-26T11:23:37.130Z,14.19
2018-04-26T11:26:04.629Z,14.22
2018-04-26T11:28:32.106Z,14.30
2018-04-26T11:30:59.659Z,14.44
2018-04-26T11:33:27.103Z,14.40
2018-04-26T11:35:54.600Z,14.33
2018-04-26T11:38:22.088Z,14.33
2018-04-26T11:40:49.569Z,14.21
2018-04-26T11:43:17.062Z,14.41
2018-04-26T11:45:45.543Z,14.50
2018-04-26T11:48:13.014Z,14.44
2018-04-26T11:50:40.505Z,14.38
2018-04-26T11:53:07.987Z,14.35
2018-04-26T11:55:35.494Z,14.35
2018-04-26T11:58:02.963Z,14.28
2018-04-26T12:00:30.455Z,14.21
2018-04-26T12:02:57.943Z,14.22
2018-04-26T12:05:25.431Z,14.16
2018-04-26T12:07:52.922Z,14.16
2018-04-26T12:10:20.399Z,14.08
2018-04-26T12:12:47.905Z,13.90
2018-04-26T12:15:15.375Z,13.83
2018-04-26T12:17:42.845Z,13.93
2018-04-26T12:20:10.313Z,13.86
2018-04-26T12:22:37.778Z,14.02
2018-04-26T12:25:05.254Z,14.00
2018-04-26T12:27:32.732Z,14.02
2018-04-26T12:30:00.202Z,14.02
2018-04-26T12:32:27.682Z,14.03
2018-04-26T12:34:55.165Z,13.93
2018-04-26T12:37:22.638Z,14.00
2018-04-26T12:39:50.131Z,14.04
2018-04-26T12:42:17.650Z,14.09
2018-04-26T12:44:45.110Z,14.30
2018-04-26T12:47:12.632Z,14.24
2018-04-26T12:49:40.437Z,14.10
2018-04-26T12:52:07.927Z,14.13
2018-04-26T12:54:35.422Z,13.96
2018-04-26T12:57:02.916Z,13.91
2018-04-26T12:59:30.395Z,13.96
2018-04-26T13:01:57.866Z,13.90
2018-04-26T13:04:25.365Z,13.95
2018-04-26T13:06:52.832Z,13.81
2018-04-26T13:09:20.318Z,13.88
2018-04-26T13:11:47.814Z,13.78
2018-04-26T13:14:15.298Z,13.72
2018-04-26T13:16:42.798Z,13.66
2018-04-26T13:19:10.296Z,13.66
2018-04-26T13:21:37.779Z,13.71
2018-04-26T13:24:05.270Z,13.74
2018-04-26T13:26:32.768Z,13.69
2018-04-26T13:29:00.252Z,13.76
2018-04-26T13:31:27.749Z,13.77
2018-04-26T13:33:55.248Z,13.81
2018-04-26T13:36:22.829Z,13.84
2018-04-26T13:38:50.255Z,13.91
2018-04-26T13:41:17.754Z,13.93
2018-04-26T13:43:45.252Z,13.85
2018-04-26T13:46:12.796Z,13.93
2018-04-26T13:48:40.356Z,13.97
2018-04-26T13:51:07.834Z,14.01
2018-04-26T13:53:35.317Z,14.02
2018-04-26T13:56:02.806Z,14.13
2018-04-26T13:58:30.361Z,14.07
2018-04-26T14:00:57.862Z,14.00
2018-04-26T14:03:25.402Z,13.96
2018-04-26T14:05:52.932Z,13.83
2018-04-26T14:08:20.430Z,13.77
2018-04-26T14:10:47.936Z,13.91
2018-04-26T14:13:15.444Z,13.88
2018-04-26T14:15:42.982Z,13.91
2018-04-26T14:18:10.473Z,13.81
2018-04-26T14:20:37.982Z,13.87
2018-04-26T14:23:05.556Z,13.69
2018-04-26T14:25:34.223Z,13.60
2018-04-26T14:28:02.535Z,13.55
2018-04-26T14:30:30.066Z,13.50
2018-04-26T14:32:57.635Z,13.45
2018-04-26T14:35:25.108Z,13.39
2018-04-26T14:37:52.589Z,13.43
2018-04-26T14:40:20.099Z,13.48
2018-04-26T14:42:47.588Z,13.61
2018-04-26T14:45:15.083Z,13.55
2018-04-26T14:47:42.617Z,13.59
2018-04-26T14:50:10.107Z,13.53
2018-04-26T14:52:37.600Z,13.65
2018-04-26T14:55:05.124Z,13.80
2018-04-26T14:57:32.606Z,13.83
2018-04-26T15:00:00.109Z,13.93
2018-04-26T15:02:27.580Z,13.79
2018-04-26T15:04:55.050Z,13.75
2018-04-26T15:07:22.551Z,13.59
2018-04-26T15:09:50.030Z,13.51
2018-04-26T15:12:17.552Z,13.36
2018-04-26T15:14:45.028Z,13.37
2018-04-26T15:17:12.534Z,13.40
2018-04-26T15:19:40.031Z,13.34
2018-04-26T15:22:07.524Z,13.34
2018-04-26T15:24:35.005Z,13.31
2018-04-26T15:27:02.533Z,13.29
2018-04-26T15:29:30.018Z,13.26
2018-04-26T15:31:57.905Z,13.33
2018-04-26T15:34:25.401Z,13.18
2018-04-26T15:36:52.906Z,13.15
2018-04-26T15:39:20.422Z,13.09
2018-04-26T15:41:47.951Z,13.05
2018-04-26T15:44:15.500Z,12.99
2018-04-26T15:46:42.958Z,13.02
2018-04-26T15:49:10.475Z,13.06
2018-04-26T15:51:37.998Z,13.19
2018-04-26T15:54:17.344Z,13.22
2018-04-26T15:56:57.426Z,13.46
2018-04-26T15:59:36.785Z,13.64
2018-04-26T16:05:43.429Z,14.47
2018-04-26T16:08:28.421Z,14.24
2018-04-26T16:11:13.443Z,14.20
2018-04-26T16:13:58.346Z,13.93
2018-04-26T16:16:43.376Z,13.88
2018-04-26T16:19:33.026Z,13.96
2018-04-26T16:22:17.755Z,14.09
2018-04-26T16:24:56.971Z,14.03
2018-04-26T16:27:41.720Z,15.27
2018-04-26T16:30:20.988Z,16.37
2018-04-26T16:33:05.363Z,17.45
2018-04-26T16:35:44.692Z,18.62
2018-04-26T16:38:23.958Z,17.37
2018-04-26T16:40:51.453Z,15.96
2018-04-26T16:43:18.933Z,15.53
2018-04-26T16:45:46.474Z,15.15
2018-04-26T16:48:13.946Z,15.05
2018-04-26T16:50:41.433Z,14.84
2018-04-26T16:53:08.911Z,14.95
2018-04-26T16:55:36.444Z,15.53
2018-04-26T16:58:04.010Z,16.24
2018-04-26T17:00:31.495Z,16.87
2018-04-26T17:02:59.026Z,16.59
2018-04-26T17:05:26.511Z,16.14
2018-04-26T17:07:54.074Z,15.75
2018-04-26T17:10:21.631Z,15.49
2018-04-26T17:12:49.120Z,15.70
2018-04-26T17:15:16.683Z,15.43
2018-04-26T17:17:44.171Z,14.77
2018-04-26T17:20:11.676Z,14.82
2018-04-26T17:22:39.274Z,14.51
2018-04-26T17:25:06.695Z,14.18
2018-04-26T17:27:34.176Z,14.31
2018-04-26T17:30:01.665Z,14.87
2018-04-26T17:32:29.198Z,15.12
2018-04-26T17:34:56.715Z,14.83
2018-04-26T17:37:24.174Z,14.42
2018-04-26T17:39:51.664Z,14.23
2018-04-26T17:42:19.149Z,14.11
2018-04-26T17:44:46.794Z,13.97
2018-04-26T17:47:14.267Z,13.67
2018-04-26T17:49:41.776Z,13.65
2018-04-26T17:52:09.269Z,13.46
2018-04-26T17:54:36.908Z,13.31
2018-04-26T17:57:04.361Z,13.22
2018-04-26T17:59:31.851Z,13.16
2018-04-26T18:02:00.044Z,13.14
2018-04-26T18:04:27.535Z,13.11
2018-04-26T18:06:55.055Z,13.04
2018-04-26T18:09:22.535Z,12.94
2018-04-26T18:11:50.044Z,12.86
2018-04-26T18:14:17.544Z,12.86
2018-04-26T18:16:45.009Z,12.85
2018-04-26T18:19:12.627Z,12.83
2018-04-26T18:21:40.135Z,12.78
2018-04-26T18:24:07.646Z,12.68
2018-04-26T18:26:35.139Z,12.71
2018-04-26T18:29:02.665Z,12.69
2018-04-26T18:31:30.228Z,12.66
2018-04-26T18:33:57.734Z,12.57
2018-04-26T18:36:25.273Z,12.60
2018-04-26T18:38:52.790Z,12.56
2018-04-26T18:41:20.270Z,12.57
2018-04-26T18:43:49.207Z,12.56
2018-04-26T18:46:16.723Z,12.51
2018-04-26T18:48:44.232Z,12.49
2018-04-26T18:51:11.788Z,12.46
2018-04-26T18:53:39.299Z,12.46
2018-04-26T18:56:06.881Z,12.38
2018-04-26T18:58:35.445Z,12.36
2018-04-26T19:01:03.007Z,12.40
2018-04-26T19:03:30.666Z,12.43
2018-04-26T19:05:58.175Z,12.41
2018-04-26T19:08:25.704Z,12.40
2018-04-26T19:10:53.187Z,12.43
2018-04-26T19:13:20.700Z,12.38
2018-04-26T19:15:48.227Z,12.40
2018-04-26T19:18:15.716Z,12.37
2018-04-26T19:20:43.259Z,12.42
2018-04-26T19:23:10.751Z,12.35
2018-04-26T19:25:38.263Z,12.37
2018-04-26T19:28:05.800Z,12.36
2018-04-26T19:30:33.341Z,12.31
2018-04-26T19:33:00.931Z,12.32
2018-04-26T19:35:28.480Z,12.36
2018-04-26T19:37:56.001Z,12.40
2018-04-26T19:40:23.512Z,12.35
2018-04-26T19:42:51.024Z,12.43
2018-04-26T19:45:18.597Z,12.38
2018-04-26T19:47:46.110Z,12.36
2018-04-26T19:50:13.785Z,12.38
2018-04-26T19:52:41.323Z,12.37
2018-04-26T19:55:08.815Z,12.41
2018-04-26T19:57:36.324Z,12.44
2018-04-26T20:00:03.872Z,12.39
2018-04-26T20:02:31.409Z,12.40
2018-04-26T20:04:59.154Z,12.33
2018-04-26T20:07:26.682Z,12.34
2018-04-26T20:09:54.262Z,12.30
2018-04-26T20:12:21.774Z,12.30
2018-04-26T20:14:49.292Z,12.32
2018-04-26T20:17:16.872Z,12.29
2018-04-26T20:19:44.390Z,12.32
2018-04-26T20:22:12.337Z,12.31
2018-04-26T20:24:39.811Z,12.36
2018-04-26T20:27:07.298Z,12.32
2018-04-26T20:29:34.860Z,12.34
2018-04-26T20:32:02.374Z,12.30
2018-04-26T20:34:29.868Z,12.30
2018-04-26T20:36:57.342Z,12.32
2018-04-26T20:39:24.852Z,12.32
2018-04-26T20:41:55.243Z,12.31
2018-04-26T20:44:34.338Z,12.31
2018-04-26T20:47:01.844Z,12.25
2018-04-26T20:49:29.334Z,12.27
2018-04-26T20:51:56.829Z,12.28
2018-04-26T20:54:24.318Z,12.26
2018-04-26T20:56:51.825Z,12.22
2018-04-26T20:59:19.313Z,12.20
2018-04-26T21:01:46.792Z,12.19
2018-04-26T21:04:14.295Z,12.22
2018-04-26T21:06:41.787Z,12.19
2018-04-26T21:09:09.478Z,12.15
2018-04-26T21:11:37.011Z,12.18
2018-04-26T21:14:04.542Z,12.19
2018-04-26T21:16:32.089Z,12.20
2018-04-26T21:18:59.595Z,12.12
2018-04-26T21:21:27.085Z,12.10
2018-04-26T21:23:54.927Z,12.04
2018-04-26T21:26:22.448Z,12.11
2018-04-26T21:28:49.965Z,12.01
2018-04-26T21:31:17.565Z,11.98
2018-04-26T21:33:45.080Z,11.94
2018-04-26T21:36:12.585Z,11.95
2018-04-26T21:38:40.070Z,11.92
2018-04-26T21:41:07.630Z,11.93
2018-04-26T21:43:35.134Z,11.90
2018-04-26T21:46:02.597Z,11.96
2018-04-26T21:48:30.429Z,11.95
2018-04-26T21:51:03.559Z,11.89
2018-04-26T21:53:36.580Z,11.90
2018-04-26T21:56:09.741Z,11.85
2018-04-26T21:58:42.885Z,11.95
2018-04-26T22:01:15.933Z,11.91
2018-04-26T22:03:45.107Z,11.92
2018-04-26T22:06:12.604Z,11.83
2018-04-26T22:08:40.082Z,11.88
2018-04-26T22:11:07.563Z,11.86
2018-04-26T22:13:35.832Z,11.87
2018-04-26T22:16:03.368Z,11.83
2018-04-26T22:18:30.941Z,11.82
2018-04-26T22:20:58.482Z,11.85
2018-04-26T22:23:25.961Z,11.86
2018-04-26T22:25:53.441Z,11.83
2018-04-26T22:28:20.977Z,11.79
2018-04-26T22:30:48.502Z,11.70
2018-04-26T22:33:16.043Z,11.68
2018-04-26T22:35:43.533Z,11.75
2018-04-26T22:38:11.068Z,11.70
2018-04-26T22:40:38.557Z,11.61
2018-04-26T22:43:06.111Z,11.54
2018-04-26T22:45:33.567Z,11.48
2018-04-26T22:48:01.043Z,11.53
2018-04-26T22:50:28.550Z,11.46
2018-04-26T22:52:56.055Z,11.46
2018-04-26T22:55:23.569Z,11.44
2018-04-26T22:57:51.079Z,11.42
2018-04-26T23:00:18.558Z,11.41
2018-04-26T23:02:46.036Z,11.43
2018-04-26T23:05:13.539Z,11.48
2018-04-26T23:07:41.108Z,11.44
2018-04-26T23:10:08.698Z,11.33
2018-04-26T23:12:36.246Z,11.40
2018-04-26T23:15:03.939Z,11.36
2018-04-26T23:17:31.385Z,11.34
2018-04-26T23:19:58.855Z,11.26
2018-04-26T23:22:26.351Z,11.24
2018-04-26T23:27:27.735Z,11.22
2018-04-26T23:29:55.484Z,11.19
2018-04-26T23:32:22.963Z,11.12
2018-04-26T23:34:50.457Z,11.11
2018-04-26T23:37:17.987Z,11.08
2018-04-26T23:39:45.483Z,11.01
2018-04-26T23:42:13.032Z,10.97
2018-04-26T23:44:40.550Z,10.99
2018-04-26T23:47:08.038Z,11.06
2018-04-26T23:49:35.630Z,10.97
2018-04-26T23:52:03.117Z,10.95
2018-04-26T23:54:30.609Z,10.96
2018-04-26T23:56:58.112Z,11.10
2018-04-26T23:59:25.592Z,11.04
